LOT6PK EPRZ-EPWA
Flight info
| Callsign | LOT6PK |
|---|---|
| Flight time | 0h 28m |
| Altitude | 30000 |
| Route | VELAX Q258 UREKO L621 LIMVI |
| Aircraft | A320/M-SDE3FGHIRWY/LB1 |
Departure
| Time | 2026-04-22 19:56 |
|---|---|
| Airport | Rzeszów-Jasionka Airport (EPRZ) |
Arrival
| Time | 2026-04-22 20:24 |
|---|---|
| Airport | Warsaw Chopin Airport (EPWA) |
| Time | Latitude | Longitude | Altitude | Speed | Heading |
|---|---|---|---|---|---|
| 2026-04-22 19:31 | 50.11418 | 22.02433 | 678 ft | 0 kts | 1° |
| 2026-04-22 19:46 | 50.11405 | 22.02433 | 682 ft | 4 kts | 1° |
| 2026-04-22 19:46 | 50.11379 | 22.02432 | 684 ft | 4 kts | 2° |
| 2026-04-22 19:47 | 50.11352 | 22.02428 | 680 ft | 4 kts | 15° |
| 2026-04-22 19:47 | 50.11329 | 22.02411 | 685 ft | 4 kts | 59° |
| 2026-04-22 19:47 | 50.11325 | 22.02394 | 687 ft | 1 kts | 91° |
| 2026-04-22 19:51 | 50.11324 | 22.02443 | 683 ft | 7 kts | 91° |
| 2026-04-22 19:51 | 50.11322 | 22.02539 | 685 ft | 19 kts | 91° |
| 2026-04-22 19:51 | 50.11302 | 22.02724 | 685 ft | 14 kts | 138° |
| 2026-04-22 19:51 | 50.11215 | 22.02738 | 686 ft | 12 kts | 181° |
| 2026-04-22 19:52 | 50.11133 | 22.02734 | 680 ft | 11 kts | 181° |
| 2026-04-22 19:52 | 50.11098 | 22.02734 | 683 ft | 1 kts | 181° |
| 2026-04-22 19:52 | 50.11058 | 22.02732 | 682 ft | 12 kts | 181° |
| 2026-04-22 19:52 | 50.10989 | 22.02773 | 680 ft | 10 kts | 123° |
| 2026-04-22 19:53 | 50.10983 | 22.02911 | 683 ft | 19 kts | 90° |
| 2026-04-22 19:53 | 50.10979 | 22.03110 | 685 ft | 19 kts | 91° |
| 2026-04-22 19:53 | 50.10977 | 22.03271 | 682 ft | 27 kts | 91° |
| 2026-04-22 19:53 | 50.10972 | 22.03690 | 679 ft | 31 kts | 91° |
| 2026-04-22 19:54 | 50.10966 | 22.04037 | 679 ft | 31 kts | 89° |
| 2026-04-22 19:54 | 50.10963 | 22.04337 | 678 ft | 25 kts | 89° |
| 2026-04-22 19:54 | 50.10961 | 22.04490 | 682 ft | 7 kts | 103° |
| 2026-04-22 19:54 | 50.10947 | 22.04542 | 681 ft | 5 kts | 107° |
| 2026-04-22 19:55 | 50.10961 | 22.04543 | 683 ft | 3 kts | 275° |
| 2026-04-22 19:55 | 50.10961 | 22.04507 | 682 ft | 6 kts | 271° |
| 2026-04-22 19:55 | 50.10963 | 22.04170 | 673 ft | 67 kts | 270° |
| 2026-04-22 19:55 | 50.10980 | 22.03109 | 682 ft | 126 kts | 271° |
| 2026-04-22 19:56 | 50.10993 | 22.01498 | 828 ft | 157 kts | 271° |
| 2026-04-22 19:56 | 50.11013 | 21.99807 | 1501 ft | 157 kts | 272° |
| 2026-04-22 19:56 | 50.11027 | 21.98093 | 2138 ft | 165 kts | 276° |
| 2026-04-22 19:56 | 50.11045 | 21.96858 | 2365 ft | 179 kts | 276° |
| 2026-04-22 19:57 | 50.11088 | 21.94782 | 2627 ft | 205 kts | 276° |
| 2026-04-22 19:57 | 50.11127 | 21.91722 | 3536 ft | 216 kts | 275° |
| 2026-04-22 19:57 | 50.11165 | 21.89364 | 4343 ft | 218 kts | 281° |
| 2026-04-22 19:57 | 50.11441 | 21.87850 | 4845 ft | 215 kts | 304° |
| 2026-04-22 19:58 | 50.12556 | 21.86365 | 5488 ft | 219 kts | 342° |
| 2026-04-22 19:58 | 50.14097 | 21.86184 | 6165 ft | 229 kts | 3° |
| 2026-04-22 19:58 | 50.15670 | 21.86596 | 6971 ft | 232 kts | 9° |
| 2026-04-22 19:58 | 50.17309 | 21.86888 | 7546 ft | 246 kts | 355° |
| 2026-04-22 19:59 | 50.19054 | 21.86700 | 8215 ft | 255 kts | 355° |
| 2026-04-22 20:00 | 50.31000 | 21.85355 | 11223 ft | 338 kts | 355° |
| 2026-04-22 20:00 | 50.33367 | 21.85093 | 11878 ft | 343 kts | 356° |
| 2026-04-22 20:01 | 50.35759 | 21.84793 | 12576 ft | 347 kts | 355° |
| 2026-04-22 20:01 | 50.38180 | 21.84461 | 13271 ft | 351 kts | 355° |
| 2026-04-22 20:01 | 50.40624 | 21.84130 | 13950 ft | 354 kts | 356° |
| 2026-04-22 20:01 | 50.43093 | 21.83818 | 14571 ft | 357 kts | 356° |
| 2026-04-22 20:02 | 50.45564 | 21.83272 | 15196 ft | 361 kts | 347° |
| 2026-04-22 20:02 | 50.47995 | 21.82213 | 15825 ft | 364 kts | 347° |
| 2026-04-22 20:02 | 50.50443 | 21.81133 | 16453 ft | 367 kts | 347° |
| 2026-04-22 20:02 | 50.52893 | 21.80044 | 17069 ft | 369 kts | 347° |
| 2026-04-22 20:03 | 50.55389 | 21.78925 | 17702 ft | 372 kts | 347° |
| 2026-04-22 20:03 | 50.57884 | 21.77807 | 18330 ft | 374 kts | 347° |
| 2026-04-22 20:03 | 50.60399 | 21.76682 | 18865 ft | 377 kts | 347° |
| 2026-04-22 20:03 | 50.62932 | 21.75551 | 19401 ft | 379 kts | 347° |
| 2026-04-22 20:04 | 50.65475 | 21.74413 | 19923 ft | 381 kts | 348° |
| 2026-04-22 20:04 | 50.67998 | 21.73284 | 20436 ft | 383 kts | 348° |
| 2026-04-22 20:04 | 50.70569 | 21.72132 | 20931 ft | 385 kts | 348° |
| 2026-04-22 20:04 | 50.73160 | 21.70968 | 21422 ft | 387 kts | 348° |
| 2026-04-22 20:05 | 50.75761 | 21.69800 | 21900 ft | 389 kts | 348° |
| 2026-04-22 20:05 | 50.78367 | 21.68628 | 22372 ft | 391 kts | 348° |
| 2026-04-22 20:05 | 50.80998 | 21.67443 | 22830 ft | 393 kts | 348° |
| 2026-04-22 20:05 | 50.83635 | 21.66254 | 23269 ft | 395 kts | 348° |
| 2026-04-22 20:06 | 50.86277 | 21.65055 | 23692 ft | 397 kts | 348° |
| 2026-04-22 20:06 | 50.88940 | 21.63847 | 24031 ft | 399 kts | 348° |
| 2026-04-22 20:06 | 50.91616 | 21.62636 | 24362 ft | 401 kts | 348° |
| 2026-04-22 20:06 | 50.94314 | 21.61418 | 24688 ft | 404 kts | 348° |
| 2026-04-22 20:07 | 50.97024 | 21.60195 | 24994 ft | 406 kts | 348° |
| 2026-04-22 20:07 | 50.99747 | 21.58965 | 25291 ft | 408 kts | 348° |
| 2026-04-22 20:07 | 51.02434 | 21.57744 | 24710 ft | 408 kts | 348° |
| 2026-04-22 20:07 | 51.05202 | 21.56479 | 23369 ft | 417 kts | 347° |
| 2026-04-22 20:08 | 51.08019 | 21.55189 | 21902 ft | 426 kts | 347° |
| 2026-04-22 20:08 | 51.10867 | 21.53884 | 20831 ft | 425 kts | 346° |
| 2026-04-22 20:08 | 51.13696 | 21.52582 | 19847 ft | 417 kts | 346° |
| 2026-04-22 20:08 | 51.16463 | 21.51302 | 18497 ft | 411 kts | 346° |
| 2026-04-22 20:09 | 51.19152 | 21.50062 | 17941 ft | 395 kts | 346° |
| 2026-04-22 20:09 | 51.21767 | 21.48858 | 17386 ft | 388 kts | 346° |
| 2026-04-22 20:09 | 51.24348 | 21.47679 | 16849 ft | 382 kts | 346° |
| 2026-04-22 20:09 | 51.26887 | 21.46519 | 16305 ft | 378 kts | 346° |
| 2026-04-22 20:10 | 51.29400 | 21.45369 | 15802 ft | 372 kts | 346° |
| 2026-04-22 20:10 | 51.31875 | 21.44231 | 15307 ft | 368 kts | 345° |
| 2026-04-22 20:10 | 51.34317 | 21.43102 | 14823 ft | 363 kts | 345° |
| 2026-04-22 20:10 | 51.36730 | 21.41991 | 14345 ft | 359 kts | 345° |
| 2026-04-22 20:11 | 51.39118 | 21.40891 | 13838 ft | 355 kts | 345° |
| 2026-04-22 20:11 | 51.41485 | 21.39796 | 13318 ft | 351 kts | 345° |
| 2026-04-22 20:11 | 51.43815 | 21.38718 | 12792 ft | 347 kts | 345° |
| 2026-04-22 20:11 | 51.46092 | 21.37663 | 12277 ft | 342 kts | 345° |
| 2026-04-22 20:12 | 51.48372 | 21.36604 | 11735 ft | 340 kts | 345° |
| 2026-04-22 20:12 | 51.50634 | 21.35552 | 11252 ft | 335 kts | 345° |
| 2026-04-22 20:12 | 51.52823 | 21.34534 | 11130 ft | 319 kts | 345° |
| 2026-04-22 20:12 | 51.54907 | 21.33564 | 10996 ft | 306 kts | 345° |
| 2026-04-22 20:13 | 51.56908 | 21.32629 | 10870 ft | 293 kts | 345° |
| 2026-04-22 20:13 | 51.58826 | 21.31733 | 10745 ft | 281 kts | 345° |
| 2026-04-22 20:13 | 51.60674 | 21.30866 | 10575 ft | 272 kts | 345° |
| 2026-04-22 20:13 | 51.62471 | 21.30023 | 10424 ft | 266 kts | 345° |
| 2026-04-22 20:14 | 51.64249 | 21.29193 | 10369 ft | 266 kts | 345° |
| 2026-04-22 20:14 | 51.66030 | 21.28360 | 10289 ft | 266 kts | 345° |
| 2026-04-22 20:14 | 51.67804 | 21.27529 | 10185 ft | 265 kts | 345° |
| 2026-04-22 20:14 | 51.69569 | 21.26705 | 9977 ft | 262 kts | 345° |
| 2026-04-22 20:15 | 51.71300 | 21.25893 | 9827 ft | 265 kts | 345° |
| 2026-04-22 20:15 | 51.73085 | 21.25054 | 9340 ft | 266 kts | 344° |
| 2026-04-22 20:15 | 51.74848 | 21.24224 | 9002 ft | 262 kts | 344° |
| 2026-04-22 20:15 | 51.76598 | 21.23403 | 8589 ft | 261 kts | 343° |
| 2026-04-22 20:16 | 51.78325 | 21.22590 | 8019 ft | 257 kts | 343° |
| 2026-04-22 20:16 | 51.80030 | 21.21784 | 7419 ft | 253 kts | 342° |
| 2026-04-22 20:16 | 51.81709 | 21.20992 | 6860 ft | 248 kts | 342° |
| 2026-04-22 20:16 | 51.83357 | 21.20214 | 6309 ft | 244 kts | 341° |
| 2026-04-22 20:17 | 51.84980 | 21.19448 | 5805 ft | 241 kts | 341° |
| 2026-04-22 20:17 | 51.86592 | 21.18687 | 5344 ft | 241 kts | 341° |
| 2026-04-22 20:17 | 51.88187 | 21.17934 | 4893 ft | 243 kts | 341° |
| 2026-04-22 20:17 | 51.89807 | 21.17168 | 4413 ft | 242 kts | 341° |
| 2026-04-22 20:18 | 51.91422 | 21.16401 | 4071 ft | 237 kts | 341° |
| 2026-04-22 20:18 | 51.92953 | 21.15678 | 4015 ft | 222 kts | 341° |
| 2026-04-22 20:18 | 51.94386 | 21.15000 | 3965 ft | 208 kts | 341° |
| 2026-04-22 20:18 | 51.95764 | 21.14346 | 3887 ft | 205 kts | 341° |
| 2026-04-22 20:19 | 51.97107 | 21.13640 | 3804 ft | 204 kts | 334° |
| 2026-04-22 20:19 | 51.98363 | 21.12569 | 3706 ft | 204 kts | 330° |
| 2026-04-22 20:19 | 51.99601 | 21.11483 | 3626 ft | 197 kts | 330° |
| 2026-04-22 20:19 | 52.00783 | 21.10456 | 3558 ft | 189 kts | 330° |
| 2026-04-22 20:20 | 52.01934 | 21.09456 | 3400 ft | 186 kts | 330° |
| 2026-04-22 20:20 | 52.03044 | 21.08494 | 3209 ft | 174 kts | 330° |
| 2026-04-22 20:20 | 52.04094 | 21.07583 | 2960 ft | 169 kts | 330° |
| 2026-04-22 20:20 | 52.05124 | 21.06688 | 2729 ft | 167 kts | 330° |
| 2026-04-22 20:21 | 52.06145 | 21.05801 | 2502 ft | 166 kts | 330° |
| 2026-04-22 20:21 | 52.07163 | 21.04916 | 2276 ft | 164 kts | 330° |
| 2026-04-22 20:21 | 52.08111 | 21.04093 | 2077 ft | 146 kts | 330° |
| 2026-04-22 20:21 | 52.08979 | 21.03338 | 1881 ft | 138 kts | 330° |
| 2026-04-22 20:22 | 52.09817 | 21.02608 | 1691 ft | 135 kts | 330° |
| 2026-04-22 20:22 | 52.10643 | 21.01888 | 1502 ft | 134 kts | 330° |
| 2026-04-22 20:22 | 52.11466 | 21.01171 | 1325 ft | 134 kts | 330° |
| 2026-04-22 20:22 | 52.12278 | 21.00465 | 1122 ft | 134 kts | 330° |
| 2026-04-22 20:23 | 52.13106 | 20.99754 | 906 ft | 135 kts | 330° |
| 2026-04-22 20:23 | 52.13941 | 20.99046 | 756 ft | 136 kts | 330° |
| 2026-04-22 20:23 | 52.14772 | 20.98296 | 558 ft | 137 kts | 329° |
| 2026-04-22 20:23 | 52.15607 | 20.97550 | 377 ft | 136 kts | 330° |
| 2026-04-22 20:24 | 52.16349 | 20.96892 | 336 ft | 71 kts | 332° |
| 2026-04-22 20:24 | 52.16601 | 20.96672 | 339 ft | 41 kts | 330° |
| 2026-04-22 20:24 | 52.16864 | 20.96509 | 335 ft | 40 kts | 349° |
| 2026-04-22 20:24 | 52.17071 | 20.96540 | 338 ft | 21 kts | 35° |
| 2026-04-22 20:25 | 52.17142 | 20.96721 | 337 ft | 16 kts | 58° |
| 2026-04-22 20:25 | 52.17148 | 20.96841 | 335 ft | 9 kts | 140° |
| 2026-04-22 20:25 | 52.17126 | 20.96866 | 339 ft | 2 kts | 144° |
| 2026-04-22 20:25 | 52.17116 | 20.96891 | 339 ft | 2 kts | 102° |
| 2026-04-22 20:26 | 52.17118 | 20.96917 | 335 ft | 3 kts | 77° |
| 2026-04-22 20:26 | 52.17128 | 20.96948 | 337 ft | 5 kts | 62° |
| 2026-04-22 20:26 | 52.17141 | 20.96986 | 339 ft | 3 kts | 62° |
| 2026-04-22 20:26 | 52.17148 | 20.97008 | 338 ft | 1 kts | 62° |
| 2026-04-22 20:27 | 52.17150 | 20.97014 | 338 ft | 0 kts | 62° |
| 2026-04-22 20:27 | 52.17151 | 20.97016 | 335 ft | 0 kts | 62° |